• Join FlightAware (Why Join?)
  • Login
  • US Flag 
01:26PM EDT


 

Airport Tracker/Info


-or-


 

Live Flight TrackerFlight Track Log ✈ TAM3445 ✈ 22-Jan-2014 ✈ SBBR / BSB - SBGL / GIG

Flight Track Log - Related Links

Times and Time Zones

All times are in EST time to prevent confusion due to time zone crossing. See the TAM3445 flight status page for this flight to view local times or setup timezone preferences in your user account.

Time Position Orientation Groundspeed Altitude Reporting Facility
EST Latitude Longitude Course Direction KTS MPH feet Rate Location/Type
05:36PM -18.7047 -46.0592 148° Southeast  Level Estimated
05:37PM -18.7856 -46.0053 148° Southeast  Level Estimated
05:38PM -18.8666 -45.9515 148° Southeast  Level Estimated
05:39PM -18.9475 -45.8975 148° Southeast  Level Estimated
05:40PM -19.0284 -45.8436 148° Southeast  Level Estimated
05:41PM -19.1092 -45.7895 148° Southeast  Level Estimated
05:42PM -19.1901 -45.7354 148° Southeast  Level Estimated
05:43PM -19.2710 -45.6813 148° Southeast  Level Estimated
05:44PM -19.3518 -45.6271 148° Southeast  Level Estimated
05:45PM -19.4326 -45.5728 148° Southeast  Level Estimated
05:46PM -19.5134 -45.5185 148° Southeast  Level Estimated
05:47PM -19.5942 -45.4642 148° Southeast  Level Estimated
05:48PM -19.6750 -45.4098 148° Southeast  Level Estimated
05:49PM -19.7557 -45.3553 148° Southeast  Level Estimated
05:50PM -19.8365 -45.3008 148° Southeast  Level Estimated
05:51PM -19.9172 -45.2462 148° Southeast  Level Estimated
05:52PM -19.9979 -45.1916 148° Southeast  Level Estimated
05:53PM -20.0786 -45.1369 148° Southeast  Level Estimated
05:54PM -20.1593 -45.0821 148° Southeast  Level Estimated
05:55PM -20.2399 -45.0273 147° Southeast  Level Estimated
05:56PM -20.3205 -44.9725 147° Southeast  Level Estimated
05:57PM -20.4012 -44.9175 147° Southeast  Level Estimated
05:58PM -20.4818 -44.8626 147° Southeast  Level Estimated
05:59PM -20.5623 -44.8075 147° Southeast  Level Estimated
06:00PM -20.6429 -44.7525 147° Southeast  Level Estimated
06:01PM -20.7235 -44.6973 147° Southeast  Level Estimated
06:02PM -20.8040 -44.6421 147° Southeast  Level Estimated
06:03PM -20.8845 -44.5868 147° Southeast  Level Estimated
06:04PM -20.9650 -44.5315 147° Southeast  Level Estimated
06:05PM -21.0455 -44.4761 147° Southeast  Level Estimated
06:06PM -21.1259 -44.4207 147° Southeast  Level Estimated
06:07PM -21.2064 -44.3652 147° Southeast  Level Estimated
06:08PM -21.2868 -44.3096 147° Southeast  Level Estimated
06:09PM -21.3672 -44.2540 147° Southeast  Level Estimated
06:10PM -21.4476 -44.1983 147° Southeast  Level Estimated
06:11PM -21.5280 -44.1425 147° Southeast  Level Estimated
06:12PM -21.6083 -44.0867 147° Southeast  Level Estimated
06:13PM -21.6887 -44.0308 147° Southeast  Level Estimated
06:14PM -21.7690 -43.9749 147° Southeast  Level Estimated
06:15PM -21.8493 -43.9189 147° Southeast  Level Estimated
06:16PM -21.9295 -43.8629 147° Southeast  Level Estimated
06:17PM -22.0098 -43.8067 147° Southeast  Level Estimated
06:18PM -22.0900 -43.7505 147° Southeast  Level Estimated
06:19PM -22.1702 -43.6943 147° Southeast  Level Estimated
06:20PM -22.2505 -43.6380 147° Southeast  Level Estimated
06:21PM -22.3306 -43.5816 147° Southeast  Level Estimated
06:22PM -22.4108 -43.5252 147° Southeast  Level Estimated
06:23PM -22.4909 -43.4687 147° Southeast  Level Estimated
06:24PM -22.5711 -43.4121 147° Southeast  Level Estimated
06:25PM -22.6511 -43.3554 147° Southeast  Level Estimated
06:26PM -22.7312 -43.2987 147° Southeast  Level Estimated
06:27PM -22.8089 -43.2436 147° Southeast  Level Estimated
06:28PM -22.8089 -43.2436 137° Southeast  Level Estimated
06:29PM -22.8089 -43.2436 137° Southeast  Level Estimated
06:30PM -22.8089 -43.2436 137° Southeast  Level Estimated
06:31PM -22.8089 -43.2436 137° Southeast  Level Estimated
06:32PM -22.8089 -43.2436 137° Southeast  Level Estimated
06:33PM -22.8089 -43.2436 137° Southeast  Level Estimated
06:34PM -22.8089 -43.2436 137° Southeast  Level Estimated
06:35PM -22.8089 -43.2436 137° Southeast  Level Estimated
06:36PM -22.8089 -43.2436 137° Southeast  Level Estimated
06:37PM -22.8089 -43.2436 137° Southeast  Level Estimated
06:38PM -22.8089 -43.2436 137° Southeast  Level Estimated
06:39PM -22.8089 -43.2436 137° Southeast  Level Estimated
06:40PM -22.8089 -43.2436 137° Southeast  Level Estimated
06:41PM -22.8089 -43.2436 137° Southeast  Level Estimated
06:42PM -22.8089 -43.2436 137° Southeast  Level Estimated
06:43PM -22.8089 -43.2436 137° Southeast  Level Estimated